Time,TemperatureF,DewpointF,PressureIn,WindDirection,WindDirectionDegrees,WindSpeedMPH,WindSpeedGustMPH,Humidity,HourlyPrecipIn,Conditions,Clouds,dailyrainin,SoftwareType,DateUTC
2014-07-25 00:13:00,59.0,56.0,29.97,NNE,24,0.0,-999.0,89,-99.99,,,-99.99,,2014-07-25 04:13:00,
2014-07-25 01:43:00,56.0,53.0,30.01,NNE,24,0.0,-999.0,90,-99.99,,,-99.99,,2014-07-25 05:43:00,
2014-07-25 02:42:00,55.0,53.0,30.01,NNE,24,0.0,-999.0,93,-99.99,,,-99.99,,2014-07-25 06:42:00,
2014-07-25 04:12:00,53.0,51.0,30.01,NNE,24,0.0,-999.0,93,-99.99,,,-99.99,,2014-07-25 08:12:00,
2014-07-25 04:42:00,53.0,51.0,30.01,NNE,24,0.0,-999.0,93,-99.99,,,-99.99,,2014-07-25 08:42:00,
2014-07-25 05:43:00,52.0,50.0,30.03,NNE,24,0.0,-999.0,94,-99.99,,,-99.99,,2014-07-25 09:43:00,
2014-07-25 07:13:00,51.0,49.0,30.06,NNE,24,0.0,-999.0,93,-99.99,,,-99.99,,2014-07-25 11:13:00,
2014-07-25 07:43:00,53.0,51.0,30.06,NNE,24,0.0,-999.0,93,-99.99,,,-99.99,,2014-07-25 11:43:00,
2014-07-25 08:42:00,57.0,53.0,30.08,NNE,24,0.0,-999.0,87,-99.99,,,-99.99,,2014-07-25 12:42:00,
2014-07-25 09:12:00,60.0,54.0,30.09,NE,48,0.0,-999.0,82,-99.99,,,-99.99,,2014-07-25 13:12:00,
2014-07-25 09:42:00,63.0,56.0,30.09,NE,51,0.0,-999.0,79,-99.99,,,-99.99,,2014-07-25 13:42:00,
2014-07-25 10:43:00,68.0,55.0,30.08,ENE,72,0.0,-999.0,63,-99.99,,,-99.99,,2014-07-25 14:43:00,
2014-07-25 11:44:00,70.0,55.0,30.06,SE,142,0.0,-999.0,58,-99.99,,,-99.99,,2014-07-25 15:44:00,
2014-07-25 13:43:00,74.0,52.0,30.04,WNW,303,0.0,-999.0,47,-99.99,,,-99.99,,2014-07-25 17:43:00,
2014-07-25 14:12:00,76.0,52.0,30.03,WNW,292,0.0,-999.0,43,-99.99,,,-99.99,,2014-07-25 18:12:00,
2014-07-25 14:42:00,76.0,52.0,30.02,West,269,0.0,-999.0,44,-99.99,,,-99.99,,2014-07-25 18:42:00,
2014-07-25 15:42:00,78.0,52.0,29.99,WSW,245,0.0,-999.0,40,-99.99,,,-99.99,,2014-07-25 19:42:00,
2014-07-25 16:13:00,79.0,53.0,29.99,SW,225,0.0,-999.0,40,-99.99,,,-99.99,,2014-07-25 20:13:00,
2014-07-25 16:32:00,77.0,52.0,29.99,SW,221,0.0,-999.0,42,-99.99,,,-99.99,,2014-07-25 20:32:00,
2014-07-25 16:43:00,77.0,52.0,29.99,SW,221,0.0,-999.0,42,-99.99,,,-99.99,,2014-07-25 20:43:00,
2014-07-25 17:12:00,79.0,53.0,29.99,West,273,0.0,-999.0,40,-99.99,,,-99.99,,2014-07-25 21:12:00,
2014-07-25 17:44:00,80.0,52.0,29.98,WSW,249,0.0,-999.0,38,-99.99,,,-99.99,,2014-07-25 21:44:00,
2014-07-25 18:13:00,78.0,52.0,29.98,WSW,250,0.0,-999.0,41,-99.99,,,-99.99,,2014-07-25 22:13:00,
2014-07-25 18:43:00,79.0,54.0,29.98,WSW,248,0.0,-999.0,42,-99.99,,,-99.99,,2014-07-25 22:43:00,
2014-07-25 19:42:00,77.0,59.0,29.98,WSW,250,0.0,-999.0,53,-99.99,,,-99.99,,2014-07-25 23:42:00,
2014-07-25 20:42:00,71.0,61.0,29.98,WSW,250,0.0,-999.0,70,-99.99,,,-99.99,,2014-07-26 00:42:00,
2014-07-25 21:12:00,68.0,60.0,29.98,WSW,250,0.0,-999.0,75,-99.99,,,-99.99,,2014-07-26 01:12:00,
2014-07-25 23:12:00,61.0,57.0,29.99,WSW,250,0.0,-999.0,86,-99.99,,,-99.99,,2014-07-26 03:12:00,